Geneva, NE

12:00 PM CDT on May 03, 2015 (GMT -0500)
Geneva | | Change Station
CLOSE
Current Station
Personal Weather Station
Location: Geneva, NE
Elevation: 1640 ft
Nearby Weather Stations

Elev 1640 ft 40.53 °N, 97.61 °W | Updated 13 seconds ago

Partly Cloudy
Partly Cloudy
83.5 °F
Feels Like 83 °F
N
3.8
Wind Variable Wind from SSW
Gusts 4.5 mph

Today
High -- | Low -- °F
--% Chance of Precip.
Yesterday
High -- | Low -- °F
Precip. -- in
6:27 AM 8:28 PM
Full, 100% visible
Pressure 29.77 in
Visibility 10.0 miles
Clouds Few 12000 ft
Heat Index 83 °F
Dew Point 57 °F
Humidity 40%
Rainfall 0.00 in
Snow Depth Not available.
UV 8 out of 12
Pollen 11.00 out of 12
Air Quality Not available.
Flu Activity Local Activity
METAR KJYR 031635Z AUTO 17007KT 10SM FEW120 21/14 A2977 RMK AO2

More Conditions Fewer Conditions

Pressure 29.77 in
Visibility 10.0 miles
Clouds Few 12000 ft
Heat Index 83 °F
Dew Point 57 °F
Humidity 40%
Rainfall 0.00 in
Snow Depth Not available.
UV 8 out of 12
Pollen 11.00 out of 12
Air Quality Not available.
Flu Activity Local Activity
METAR KJYR 031635Z AUTO 17007KT 10SM FEW120 21/14 A2977 RMK AO2

More Conditions Fewer Conditions

Nepal has a long way to go to dig out and rebuild from a devastating earthquake. We have teamed up with several charities and organizations to make contributing to the relief effort as easy as possible.
How you can help: Portlight Strategies | Red Cross

10-Day Weather Forecast

Almanac

Astronomy

May. 03, 2015 Rise Set
Actual Time
Civil Twilight
Nautical Twilight
Astronomical Twilight
Moon
Length of Visible Light
Length of Day
Tomorrow will be .
, % of the Moon is Illuminated

Today's Extremes

State Highs State Lows

Community

WunderPhotos

Upload Photos

1,818,284 photos uploaded!

WunderBlogs® & News

Nearby

Air Quality

  Air Quality AQ Index Pollutant
Not available.

Snow Depth

Station Depth Elevation

Earthquake Activity

City Distance Mag. Time & Date
Minimum magnitude displayed is 2.5.

Coastal Water Temperatures

Place Temperature

Stations

Nearby Weather Stations

Station Location Temp. Windchill Dew Point Humidity Wind Precip. Elev Updated Type